Time;durP1;ratioP1;P1;durP2;ratioP2;P2;SDS_P1;SDS_P2;PMS_P1;PMS_P2;Temp;Humidity;BMP_temperature;BMP_pressure;BME280_temperature;BME280_humidity;BME280_pressure;Samples;Min_cycle;Max_cycle;Signal;HPM_P1;HPM_P2
2021/10/05 00:00:06;;;;;;;9.77;7.35;;;;;;;;;;4916409;29;20055;-80
2021/10/05 00:02:34;;;;;;;6.40;5.22;;;;;;;;;;4933098;29;20523;-80
2021/10/05 00:05:02;;;;;;;6.65;4.82;;;;;;;;;;4933053;28;20060;-80
2021/10/05 00:07:30;;;;;;;8.43;6.15;;;;;;;;;;4933300;29;20058;-80
2021/10/05 00:09:58;;;;;;;8.57;6.03;;;;;;;;;;4931262;29;20634;-80
2021/10/05 00:12:26;;;;;;;9.00;6.30;;;;;;;;;;4933038;29;20551;-80
2021/10/05 00:14:54;;;;;;;6.40;5.32;;;;;;;;;;4933064;28;20381;-80
2021/10/05 00:17:22;;;;;;;9.75;6.68;;;;;;;;;;4932607;29;20044;-80
2021/10/05 00:19:50;;;;;;;6.50;5.85;;;;;;;;;;4933331;29;20067;-80
2021/10/05 00:22:18;;;;;;;8.77;5.95;;;;;;;;;;4932511;29;20047;-79
2021/10/05 00:24:46;;;;;;;6.97;5.47;;;;;;;;;;4932950;29;20051;-80
2021/10/05 00:27:14;;;;;;;8.25;6.78;;;;;;;;;;4932806;29;20477;-80
2021/10/05 00:29:42;;;;;;;8.55;6.90;;;;;;;;;;4915055;29;20051;-80
2021/10/05 00:32:10;;;;;;;10.77;7.47;;;;;;;;;;4932950;29;20396;-79
2021/10/05 00:34:38;;;;;;;11.27;6.82;;;;;;;;;;4933018;29;20048;-79
2021/10/05 00:37:06;;;;;;;8.93;6.68;;;;;;;;;;4934790;29;20048;-79
2021/10/05 00:39:34;;;;;;;10.18;7.93;;;;;;;;;;4936832;29;20968;-79
2021/10/05 00:42:03;;;;;;;9.00;7.47;;;;;;;;;;4935294;29;20044;-79
2021/10/05 00:44:33;;;;;;;11.15;7.90;;;;;;;;;;4936706;29;20062;-79
2021/10/05 00:47:05;;;;;;;8.85;7.97;;;;;;;;;;4935991;29;20512;-79
2021/10/05 00:49:33;;;;;;;11.57;9.35;;;;;;;;;;4936076;29;20055;-79
2021/10/05 00:52:01;;;;;;;11.48;8.80;;;;;;;;;;4936402;29;20473;-78
2021/10/05 00:54:34;;;;;;;10.10;9.07;;;;;;;;;;4919049;29;20058;-78
2021/10/05 00:57:02;;;;;;;11.45;9.48;;;;;;;;;;4935215;29;20485;-79
2021/10/05 00:59:31;;;;;;;12.50;8.10;;;;;;;;;;4936525;29;20044;-79
2021/10/05 01:02:00;;;;;;;13.05;10.45;;;;;;;;;;4935996;29;20047;-79
2021/10/05 01:04:28;;;;;;;12.10;8.93;;;;;;;;;;4936527;29;20051;-79
2021/10/05 01:06:58;;;;;;;10.65;8.07;;;;;;;;;;4934476;29;20059;-79
2021/10/05 01:09:27;;;;;;;13.50;8.88;;;;;;;;;;4935865;29;20048;-79
2021/10/05 01:11:55;;;;;;;13.10;8.60;;;;;;;;;;4935190;29;20048;-79
2021/10/05 01:14:23;;;;;;;11.68;8.25;;;;;;;;;;4936003;28;20485;-79
2021/10/05 01:16:53;;;;;;;11.98;8.93;;;;;;;;;;4935441;29;20398;-79
2021/10/05 01:19:21;;;;;;;15.65;9.68;;;;;;;;;;4935973;29;20070;-79
2021/10/05 01:21:49;;;;;;;11.88;7.78;;;;;;;;;;4935455;29;20070;-78
2021/10/05 01:24:18;;;;;;;14.10;9.30;;;;;;;;;;4935764;29;20070;-79
2021/10/05 01:26:46;;;;;;;13.15;9.23;;;;;;;;;;4934795;29;20058;-79
2021/10/05 01:29:15;;;;;;;12.55;9.45;;;;;;;;;;4918615;29;20043;-79
2021/10/05 01:31:45;;;;;;;12.23;8.38;;;;;;;;;;4935768;29;20051;-79
2021/10/05 01:34:13;;;;;;;11.00;8.15;;;;;;;;;;4935552;29;20407;-79
2021/10/05 01:36:41;;;;;;;13.55;10.25;;;;;;;;;;4917260;29;20050;-79
2021/10/05 01:39:22;;;;;;;13.05;11.18;;;;;;;;;;4918367;29;20055;-79
2021/10/05 01:41:50;;;;;;;12.00;8.93;;;;;;;;;;4934174;29;20063;-79
2021/10/05 01:44:18;;;;;;;11.05;8.02;;;;;;;;;;4935939;29;20272;-79
2021/10/05 01:46:50;;;;;;;12.38;9.38;;;;;;;;;;4934787;29;20490;-79
2021/10/05 01:49:17;;;;;;;;;;;;;;;;;;4935187;29;20051;-79
2021/10/05 01:51:50;;;;;;;15.93;11.27;;;;;;;;;;4916735;29;19927;-84
2021/10/05 01:54:18;;;;;;;13.23;9.75;;;;;;;;;;4916740;29;20075;-78
2021/10/05 01:56:46;;;;;;;15.63;9.68;;;;;;;;;;4917722;29;20058;-79
2021/10/05 01:59:14;;;;;;;14.63;10.60;;;;;;;;;;4918626;29;20044;-79
2021/10/05 02:01:42;;;;;;;13.52;9.32;;;;;;;;;;4934909;29;20516;-79
2021/10/05 02:04:11;;;;;;;14.75;9.48;;;;;;;;;;4922210;29;20051;-79
2021/10/05 02:06:39;;;;;;;13.55;11.10;;;;;;;;;;4934990;28;20051;-80
2021/10/05 02:09:08;;;;;;;14.90;10.48;;;;;;;;;;4934911;29;20133;-88
2021/10/05 02:11:36;;;;;;;14.45;10.18;;;;;;;;;;4933548;29;20048;-87
2021/10/05 02:14:05;;;;;;;15.48;11.77;;;;;;;;;;4933579;29;20047;-86
2021/10/05 02:16:33;;;;;;;13.93;10.30;;;;;;;;;;4935521;29;20055;-86
2021/10/05 02:19:02;;;;;;;15.02;9.43;;;;;;;;;;4917713;29;20043;-86
2021/10/05 02:21:30;;;;;;;13.98;9.13;;;;;;;;;;4934390;29;20055;-87
2021/10/05 02:26:45;;;;;;;14.70;11.30;;;;;;;;;;4933955;29;20404;-87
2021/10/05 02:29:16;;;;;;;15.50;9.82;;;;;;;;;;4917696;29;20047;-86
2021/10/05 02:31:44;;;;;;;11.85;9.23;;;;;;;;;;4909112;29;20055;-86
2021/10/05 02:34:13;;;;;;;9.88;8.43;;;;;;;;;;4932747;29;20048;-85
2021/10/05 02:36:41;;;;;;;14.15;10.63;;;;;;;;;;4934151;29;20086;-87
2021/10/05 02:39:10;;;;;;;10.98;8.57;;;;;;;;;;4933681;29;20056;-86
2021/10/05 02:41:38;;;;;;;14.00;9.35;;;;;;;;;;4933275;29;20043;-85
2021/10/05 02:44:06;;;;;;;15.70;12.00;;;;;;;;;;4934925;29;20062;-86
2021/10/05 02:46:34;;;;;;;15.93;10.35;;;;;;;;;;4934173;28;20519;-85
2021/10/05 02:49:03;;;;;;;15.88;10.25;;;;;;;;;;4932880;29;20066;-87
2021/10/05 02:51:31;;;;;;;13.70;10.02;;;;;;;;;;4932735;29;20047;-87
2021/10/05 02:53:59;;;;;;;14.98;10.88;;;;;;;;;;4934049;28;20047;-84
2021/10/05 02:56:27;;;;;;;12.73;9.70;;;;;;;;;;4932717;29;20508;-85
2021/10/05 02:58:55;;;;;;;12.68;8.45;;;;;;;;;;4931381;29;20039;-85
2021/10/05 03:01:23;;;;;;;12.52;9.20;;;;;;;;;;4933988;29;20048;-84
2021/10/05 03:03:52;;;;;;;11.88;7.78;;;;;;;;;;4934338;29;20043;-85
2021/10/05 03:06:20;;;;;;;11.57;8.55;;;;;;;;;;4933633;28;20056;-84
2021/10/05 03:08:52;;;;;;;12.75;8.85;;;;;;;;;;4932451;29;20063;-85
2021/10/05 03:11:20;;;;;;;17.17;10.70;;;;;;;;;;4931367;29;20489;-85
2021/10/05 03:13:49;;;;;;;12.88;8.55;;;;;;;;;;4933804;28;20062;-85
2021/10/05 03:16:17;;;;;;;10.88;7.32;;;;;;;;;;4934290;29;20050;-85
2021/10/05 03:18:46;;;;;;;15.90;9.35;;;;;;;;;;4933511;29;20490;-85
2021/10/05 03:21:16;;;;;;;13.13;9.02;;;;;;;;;;4931959;29;20044;-85
2021/10/05 03:23:44;;;;;;;14.02;10.52;;;;;;;;;;4932152;29;20427;-85
2021/10/05 03:26:11;;;;;;;12.60;8.43;;;;;;;;;;4932689;28;20051;-85
2021/10/05 03:28:39;;;;;;;20.30;8.73;;;;;;;;;;4933774;29;20055;-84
2021/10/05 03:31:07;;;;;;;17.95;11.70;;;;;;;;;;4933802;28;20047;-85
2021/10/05 03:33:35;;;;;;;13.68;8.52;;;;;;;;;;4916460;29;20044;-85
2021/10/05 03:36:03;;;;;;;14.05;9.07;;;;;;;;;;4916520;29;20052;-85
2021/10/05 03:38:31;;;;;;;13.95;9.15;;;;;;;;;;4932346;29;20039;-86
2021/10/05 03:41:00;;;;;;;11.15;7.93;;;;;;;;;;4932206;29;20044;-86
2021/10/05 03:43:28;;;;;;;11.77;9.10;;;;;;;;;;4934047;29;20055;-86
2021/10/05 03:45:56;;;;;;;16.70;9.10;;;;;;;;;;4916257;29;20055;-87
2021/10/05 03:48:24;;;;;;;16.55;10.95;;;;;;;;;;4917038;29;20039;-85
2021/10/05 03:50:53;;;;;;;18.40;9.35;;;;;;;;;;4931594;29;20539;-85
2021/10/05 03:53:21;;;;;;;15.95;9.15;;;;;;;;;;4933272;29;20071;-87
2021/10/05 03:55:51;;;;;;;15.57;9.55;;;;;;;;;;4915366;29;20056;-85
2021/10/05 03:58:19;;;;;;;14.88;10.68;;;;;;;;;;4932924;29;20794;-86
2021/10/05 04:00:48;;;;;;;17.33;9.70;;;;;;;;;;4933247;29;20048;-85
2021/10/05 04:03:16;;;;;;;15.40;9.65;;;;;;;;;;4933569;29;20702;-85
2021/10/05 04:05:44;;;;;;;13.95;8.68;;;;;;;;;;4895548;29;20072;-86
2021/10/05 04:08:12;;;;;;;15.52;9.02;;;;;;;;;;4897605;29;20059;-87
2021/10/05 04:10:40;;;;;;;16.17;9.73;;;;;;;;;;4914922;29;20497;-85
2021/10/05 04:13:08;;;;;;;13.82;9.25;;;;;;;;;;4917549;29;20087;-85
2021/10/05 04:15:36;;;;;;;15.63;11.25;;;;;;;;;;4918379;29;20056;-85
2021/10/05 04:18:04;;;;;;;16.25;10.93;;;;;;;;;;4917940;29;20059;-85
2021/10/05 04:20:32;;;;;;;14.52;10.65;;;;;;;;;;4915680;29;20067;-85
2021/10/05 04:23:01;;;;;;;22.80;13.48;;;;;;;;;;4917313;29;20063;-86
2021/10/05 04:25:29;;;;;;;20.10;11.65;;;;;;;;;;4915189;29;20040;-85
2021/10/05 04:27:57;;;;;;;18.30;11.07;;;;;;;;;;4917639;29;20074;-87
2021/10/05 04:30:25;;;;;;;21.15;10.57;;;;;;;;;;4917442;29;20044;-87
2021/10/05 04:32:53;;;;;;;18.23;10.55;;;;;;;;;;4916895;29;20055;-85
2021/10/05 04:35:21;;;;;;;23.13;12.98;;;;;;;;;;4922593;29;20059;-87
2021/10/05 04:37:49;;;;;;;34.75;13.90;;;;;;;;;;4936231;29;20040;-86
2021/10/05 04:40:17;;;;;;;25.77;14.77;;;;;;;;;;4920066;29;20055;-88
2021/10/05 04:42:45;;;;;;;35.15;16.30;;;;;;;;;;4918662;29;20044;-86
2021/10/05 04:45:13;;;;;;;28.15;14.68;;;;;;;;;;4903361;29;20054;-87
2021/10/05 04:47:41;;;;;;;21.20;12.73;;;;;;;;;;4936990;29;20066;-87
2021/10/05 04:50:10;;;;;;;24.15;12.35;;;;;;;;;;4918692;29;20047;-87
2021/10/05 04:52:38;;;;;;;23.90;14.23;;;;;;;;;;4905415;29;20044;-84
2021/10/05 04:55:07;;;;;;;38.08;17.15;;;;;;;;;;4917641;29;20059;-87
2021/10/05 04:57:35;;;;;;;39.22;19.67;;;;;;;;;;4884120;29;20493;-88
2021/10/05 05:00:04;;;;;;;32.28;16.83;;;;;;;;;;4926637;29;20048;-86
2021/10/05 05:02:32;;;;;;;33.33;14.27;;;;;;;;;;4936222;29;20051;-85
2021/10/05 05:05:03;;;;;;;20.10;13.57;;;;;;;;;;4932098;28;20058;-85
2021/10/05 05:07:42;;;;;;;23.02;11.52;;;;;;;;;;4931224;29;20518;-85
2021/10/05 05:10:12;;;;;;;20.00;11.65;;;;;;;;;;4885410;29;20048;-87
2021/10/05 05:12:40;;;;;;;18.45;11.25;;;;;;;;;;4901535;29;20071;-89
2021/10/05 05:15:08;;;;;;;22.55;10.38;;;;;;;;;;4913816;29;20051;-88
2021/10/05 05:17:37;;;;;;;21.25;11.90;;;;;;;;;;4934774;29;20520;-88
2021/10/05 05:20:05;;;;;;;21.90;9.88;;;;;;;;;;4933831;29;20048;-87
2021/10/05 05:22:35;;;;;;;21.27;10.95;;;;;;;;;;4887998;29;20481;-90
2021/10/05 05:25:04;;;;;;;25.15;15.68;;;;;;;;;;4907123;29;20399;-88
2021/10/05 05:27:37;;;;;;;25.02;12.00;;;;;;;;;;4915261;29;20062;-90
2021/10/05 05:30:16;;;;;;;29.10;12.25;;;;;;;;;;4918943;29;20043;-88
2021/10/05 05:32:47;;;;;;;31.52;15.88;;;;;;;;;;4918823;29;20054;-85
2021/10/05 05:35:15;;;;;;;27.70;13.52;;;;;;;;;;4930214;29;20477;-87
2021/10/05 05:37:43;;;;;;;31.95;14.32;;;;;;;;;;4916949;29;20051;-85
2021/10/05 05:40:11;;;;;;;26.08;13.00;;;;;;;;;;4928623;29;20060;-85
2021/10/05 05:42:39;;;;;;;29.70;11.10;;;;;;;;;;4933095;29;20066;-87
2021/10/05 05:45:07;;;;;;;31.65;9.70;;;;;;;;;;4933035;29;20056;-89
2021/10/05 05:47:36;;;;;;;23.58;9.30;;;;;;;;;;4918943;29;20055;-91
2021/10/05 05:50:05;;;;;;;24.63;11.70;;;;;;;;;;4933449;29;20048;-89
2021/10/05 05:52:33;;;;;;;27.05;12.10;;;;;;;;;;4934356;29;20043;-88
2021/10/05 05:55:02;;;;;;;26.00;10.02;;;;;;;;;;4915225;29;20055;-88
2021/10/05 05:57:30;;;;;;;26.20;12.60;;;;;;;;;;4915825;29;20411;-88
2021/10/05 05:59:58;;;;;;;20.10;10.70;;;;;;;;;;4934457;29;20060;-88
2021/10/05 06:02:27;;;;;;;26.20;11.90;;;;;;;;;;4932626;29;20048;-88
2021/10/05 06:04:55;;;;;;;29.00;11.18;;;;;;;;;;4917044;29;21806;-88
2021/10/05 06:07:23;;;;;;;20.02;10.98;;;;;;;;;;4916420;29;20059;-89
2021/10/05 06:09:52;;;;;;;24.00;10.65;;;;;;;;;;4913480;29;20503;-89
2021/10/05 06:12:21;;;;;;;26.40;12.82;;;;;;;;;;4919192;29;20514;-89
2021/10/05 06:14:49;;;;;;;30.42;11.05;;;;;;;;;;4915433;29;20044;-88
2021/10/05 06:17:18;;;;;;;27.02;11.32;;;;;;;;;;4915292;29;20591;-85
2021/10/05 06:19:45;;;;;;;17.73;10.32;;;;;;;;;;4928084;29;20590;-85
2021/10/05 06:22:13;;;;;;;23.00;13.27;;;;;;;;;;4932844;29;20043;-84
2021/10/05 06:24:41;;;;;;;12.93;7.13;;;;;;;;;;4933237;29;20386;-88
2021/10/05 06:27:09;;;;;;;13.07;7.82;;;;;;;;;;4933140;29;20052;-86
2021/10/05 06:29:38;;;;;;;13.45;7.57;;;;;;;;;;4933329;29;20062;-85
2021/10/05 06:32:06;;;;;;;15.20;10.45;;;;;;;;;;4947131;28;20051;-86
2021/10/05 06:34:34;;;;;;;8.38;6.07;;;;;;;;;;4919420;29;20576;-88
2021/10/05 06:37:03;;;;;;;15.15;7.78;;;;;;;;;;4932806;29;20397;-86
2021/10/05 06:39:32;;;;;;;17.58;8.52;;;;;;;;;;4933690;29;20055;-89
2021/10/05 06:42:00;;;;;;;14.13;7.20;;;;;;;;;;4929597;29;20055;-87
2021/10/05 06:44:28;;;;;;;16.40;8.38;;;;;;;;;;4952751;29;20485;-87
2021/10/05 06:46:56;;;;;;;14.50;8.13;;;;;;;;;;4946834;29;20051;-89
2021/10/05 06:49:24;;;;;;;12.20;7.45;;;;;;;;;;4915907;29;20043;-90
2021/10/05 06:51:52;;;;;;;13.85;8.73;;;;;;;;;;4914315;29;20063;-92
2021/10/05 06:54:20;;;;;;;13.30;7.63;;;;;;;;;;4898745;29;20056;-90
2021/10/05 06:56:49;;;;;;;14.63;7.90;;;;;;;;;;4914764;29;20056;-90
2021/10/05 06:59:17;;;;;;;16.42;8.48;;;;;;;;;;4915205;29;20063;-89
2021/10/05 07:01:45;;;;;;;16.65;8.73;;;;;;;;;;4913898;29;20040;-89
2021/10/05 07:04:16;;;;;;;19.17;10.80;;;;;;;;;;4930106;29;20052;-92
2021/10/05 07:06:45;;;;;;;15.80;8.00;;;;;;;;;;4946222;29;20047;-89
2021/10/05 07:09:14;;;;;;;21.02;10.27;;;;;;;;;;4926721;29;20044;-88
2021/10/05 07:11:45;;;;;;;18.58;8.15;;;;;;;;;;4933189;29;20402;-90
2021/10/05 07:14:13;;;;;;;13.90;8.73;;;;;;;;;;4931956;29;20056;-90
2021/10/05 07:16:42;;;;;;;20.05;7.95;;;;;;;;;;4924295;29;20062;-89
2021/10/05 07:19:25;;;;;;;17.10;9.75;;;;;;;;;;4953811;29;20055;-92
2021/10/05 07:21:55;;;;;;;10.63;6.45;;;;;;;;;;4931305;29;20052;-92
2021/10/05 07:24:23;;;;;;;12.63;7.97;;;;;;;;;;4918890;29;20417;-88
2021/10/05 07:26:52;;;;;;;14.32;9.30;;;;;;;;;;4943839;29;20564;-91
2021/10/05 07:29:21;;;;;;;13.98;7.05;;;;;;;;;;4951594;29;20501;-89
2021/10/05 07:31:49;;;;;;;12.80;7.68;;;;;;;;;;4917382;29;20060;-90
2021/10/05 07:34:18;;;;;;;11.98;8.38;;;;;;;;;;4933353;29;20501;-90
2021/10/05 07:36:47;;;;;;;14.43;9.55;;;;;;;;;;4931479;29;20051;-90
2021/10/05 07:39:16;;;;;;;19.02;7.55;;;;;;;;;;4932178;29;20055;-89
2021/10/05 07:41:45;;;;;;;14.95;8.45;;;;;;;;;;4931515;29;20054;-89
2021/10/05 07:44:14;;;;;;;11.43;9.10;;;;;;;;;;4929159;29;20063;-89
2021/10/05 07:46:43;;;;;;;13.07;7.05;;;;;;;;;;4931198;29;20052;-89
2021/10/05 07:49:12;;;;;;;14.63;7.47;;;;;;;;;;4931015;29;20055;-90
2021/10/05 07:51:41;;;;;;;13.43;7.38;;;;;;;;;;4923974;29;20052;-91
2021/10/05 07:54:10;;;;;;;11.85;7.20;;;;;;;;;;4925855;29;20048;-90
2021/10/05 07:56:39;;;;;;;14.02;7.75;;;;;;;;;;4929835;29;20059;-92
2021/10/05 07:59:07;;;;;;;11.57;6.80;;;;;;;;;;4917948;29;20056;-92
2021/10/05 08:01:37;;;;;;;10.35;6.50;;;;;;;;;;4919980;29;20051;-89
2021/10/05 08:04:07;;;;;;;11.40;6.72;;;;;;;;;;4920262;29;20051;-89
2021/10/05 08:06:36;;;;;;;12.70;8.48;;;;;;;;;;4930720;29;20047;-88
2021/10/05 08:09:04;;;;;;;11.90;7.72;;;;;;;;;;4932905;28;20493;-89
2021/10/05 08:11:33;;;;;;;12.27;7.20;;;;;;;;;;4933229;29;20440;-92
2021/10/05 08:14:02;;;;;;;13.65;6.68;;;;;;;;;;4932314;29;20044;-89
2021/10/05 08:16:33;;;;;;;11.13;7.07;;;;;;;;;;4905831;29;20063;-89
2021/10/05 08:19:03;;;;;;;8.40;6.82;;;;;;;;;;4912366;29;20052;-85
2021/10/05 08:21:33;;;;;;;13.20;7.38;;;;;;;;;;4918312;29;20040;-79
2021/10/05 08:24:01;;;;;;;10.48;6.50;;;;;;;;;;4934616;29;20058;-92
2021/10/05 08:26:30;;;;;;;9.77;6.95;;;;;;;;;;4931273;29;20055;-89
2021/10/05 08:28:58;;;;;;;7.88;4.80;;;;;;;;;;4931662;29;20055;-91
2021/10/05 08:31:27;;;;;;;9.23;5.50;;;;;;;;;;4913439;29;20063;-88
2021/10/05 08:33:56;;;;;;;6.88;4.93;;;;;;;;;;4931413;29;20059;-88
2021/10/05 08:36:24;;;;;;;9.02;6.40;;;;;;;;;;4914152;29;20048;-88
2021/10/05 08:38:53;;;;;;;8.40;5.60;;;;;;;;;;4900143;29;20056;-88
2021/10/05 08:41:22;;;;;;;10.50;6.97;;;;;;;;;;4913488;29;20056;-89
2021/10/05 08:43:51;;;;;;;6.63;5.28;;;;;;;;;;4914100;29;20048;-92
2021/10/05 08:46:22;;;;;;;9.13;5.60;;;;;;;;;;4915271;29;20059;-89
2021/10/05 08:48:50;;;;;;;9.60;6.20;;;;;;;;;;4930913;29;20059;-91
2021/10/05 08:51:19;;;;;;;7.30;5.22;;;;;;;;;;4914914;29;20059;-89
2021/10/05 08:53:48;;;;;;;7.95;5.22;;;;;;;;;;4931106;29;20047;-90
2021/10/05 08:56:20;;;;;;;11.43;5.75;;;;;;;;;;4933338;29;20050;-92
2021/10/05 08:58:50;;;;;;;6.72;5.95;;;;;;;;;;4901445;29;20398;-88
2021/10/05 09:01:19;;;;;;;4.68;3.78;;;;;;;;;;4919375;29;20052;-87
2021/10/05 09:03:50;;;;;;;5.18;4.05;;;;;;;;;;4931816;29;20055;-92
2021/10/05 09:06:19;;;;;;;7.53;5.30;;;;;;;;;;4934463;29;20062;-89
2021/10/05 09:08:48;;;;;;;5.82;4.18;;;;;;;;;;4934617;29;20408;-89
2021/10/05 09:11:17;;;;;;;6.45;4.53;;;;;;;;;;4927829;29;20062;-88
2021/10/05 09:13:47;;;;;;;4.60;3.75;;;;;;;;;;4918181;29;20485;-89
2021/10/05 09:16:25;;;;;;;8.20;4.65;;;;;;;;;;4934337;29;20051;-89
2021/10/05 09:18:58;;;;;;;5.75;4.30;;;;;;;;;;4916895;29;20039;-89
2021/10/05 09:21:37;;;;;;;4.80;4.20;;;;;;;;;;4906602;29;20040;-92
2021/10/05 09:24:07;;;;;;;6.13;4.07;;;;;;;;;;4925540;29;20791;-90
2021/10/05 09:26:43;;;;;;;5.13;4.43;;;;;;;;;;4933912;29;20055;-88
2021/10/05 09:29:14;;;;;;;4.50;4.05;;;;;;;;;;4914972;29;20040;-87
2021/10/05 09:31:48;;;;;;;3.58;3.22;;;;;;;;;;4917128;29;20496;-89
2021/10/05 09:34:19;;;;;;;4.65;3.88;;;;;;;;;;4933641;29;20067;-87
2021/10/05 09:36:48;;;;;;;3.67;3.20;;;;;;;;;;4933183;29;20393;-88
2021/10/05 09:39:16;;;;;;;3.38;2.90;;;;;;;;;;4917874;29;20052;-89
2021/10/05 09:41:53;;;;;;;3.85;3.40;;;;;;;;;;4916241;29;20047;-89
2021/10/05 09:44:26;;;;;;;4.22;3.72;;;;;;;;;;4914732;29;20055;-89
2021/10/05 09:46:54;;;;;;;3.90;3.30;;;;;;;;;;4919331;29;20048;-89
2021/10/05 09:49:24;;;;;;;3.55;3.00;;;;;;;;;;4934695;29;20044;-88
2021/10/05 09:51:56;;;;;;;4.78;2.90;;;;;;;;;;4916036;29;20545;-87
2021/10/05 09:54:26;;;;;;;5.40;3.92;;;;;;;;;;4915630;29;20514;-89
2021/10/05 09:56:54;;;;;;;6.18;4.50;;;;;;;;;;4915086;29;20056;-88
2021/10/05 09:59:25;;;;;;;3.10;2.65;;;;;;;;;;4934275;29;20059;-88
2021/10/05 10:01:54;;;;;;;5.78;3.08;;;;;;;;;;4933557;29;20051;-90
2021/10/05 10:04:26;;;;;;;4.00;3.10;;;;;;;;;;4935439;29;20055;-88
2021/10/05 10:06:55;;;;;;;5.50;5.03;;;;;;;;;;4933560;28;20047;-89
2021/10/05 10:09:24;;;;;;;3.65;3.15;;;;;;;;;;4916428;29;20044;-90
2021/10/05 10:11:53;;;;;;;5.50;3.20;;;;;;;;;;4915995;29;20363;-89
2021/10/05 10:14:21;;;;;;;4.18;3.75;;;;;;;;;;4916302;29;20056;-88
2021/10/05 10:16:52;;;;;;;2.97;2.67;;;;;;;;;;4918817;29;20529;-87
2021/10/05 10:19:28;;;;;;;4.82;4.32;;;;;;;;;;4915596;29;20044;-88
2021/10/05 10:22:07;;;;;;;3.40;2.28;;;;;;;;;;4921604;29;20051;-90
2021/10/05 10:24:57;;;;;;;3.90;3.22;;;;;;;;;;4934604;29;20055;-88
2021/10/05 10:27:26;;;;;;;3.25;3.03;;;;;;;;;;4931789;29;20059;-90
2021/10/05 10:30:10;;;;;;;4.78;3.95;;;;;;;;;;4933690;29;20720;-88
2021/10/05 10:32:43;;;;;;;3.38;2.60;;;;;;;;;;4952519;28;20055;-89
2021/10/05 10:35:12;;;;;;;2.50;2.40;;;;;;;;;;4950122;29;20047;-90
2021/10/05 10:37:45;;;;;;;4.78;3.15;;;;;;;;;;4933483;29;20371;-90
2021/10/05 10:40:15;;;;;;;3.47;2.63;;;;;;;;;;4917310;29;20058;-89
2021/10/05 10:42:43;;;;;;;3.80;3.25;;;;;;;;;;4933045;29;20048;-89
2021/10/05 10:45:21;;;;;;;5.18;4.18;;;;;;;;;;4916240;29;20044;-88
2021/10/05 10:47:52;;;;;;;4.65;4.25;;;;;;;;;;4933902;29;20062;-87
2021/10/05 10:50:23;;;;;;;4.47;3.83;;;;;;;;;;4915081;29;20040;-89
2021/10/05 10:52:51;;;;;;;3.10;2.80;;;;;;;;;;4933331;29;20055;-90
2021/10/05 11:01:59;;;;;;;5.25;3.67;;;;;;;;;;5467645;23;20046;-88
2021/10/05 11:04:27;;;;;;;7.07;4.63;;;;;;;;;;4957151;28;20046;-88
2021/10/05 11:06:58;;;;;;;3.35;3.08;;;;;;;;;;4964433;28;20050;-88
2021/10/05 11:09:33;;;;;;;5.30;4.50;;;;;;;;;;4970569;28;20042;-87
2021/10/05 11:12:06;;;;;;;3.10;2.75;;;;;;;;;;4953626;28;20050;-87
2021/10/05 11:14:37;;;;;;;5.10;3.25;;;;;;;;;;4968489;28;20043;-88
2021/10/05 11:17:06;;;;;;;4.63;3.03;;;;;;;;;;4970679;28;20042;-88
2021/10/05 11:19:36;;;;;;;6.20;3.47;;;;;;;;;;4938502;28;20047;-88
2021/10/05 11:22:08;;;;;;;3.72;3.35;;;;;;;;;;4969301;28;20050;-87
2021/10/05 11:24:46;;;;;;;3.65;2.95;;;;;;;;;;4961264;28;20058;-87
2021/10/05 11:27:18;;;;;;;4.57;3.05;;;;;;;;;;4936441;28;20496;-87
2021/10/05 11:29:51;;;;;;;3.65;2.92;;;;;;;;;;4971822;28;20517;-89
2021/10/05 11:32:20;;;;;;;5.32;2.25;;;;;;;;;;4954051;28;20051;-84
2021/10/05 11:34:49;;;;;;;15.75;5.32;;;;;;;;;;4971656;28;20043;-89
2021/10/05 11:37:37;;;;;;;8.98;3.85;;;;;;;;;;4970654;28;20047;-88
2021/10/05 11:40:15;;;;;;;4.35;3.95;;;;;;;;;;4934748;29;20485;-88
2021/10/05 11:42:47;;;;;;;2.67;2.38;;;;;;;;;;4950386;29;20040;-88
2021/10/05 11:45:34;;;;;;;7.10;4.15;;;;;;;;;;4964735;28;20492;-88
2021/10/05 11:48:47;;;;;;;7.50;4.13;;;;;;;;;;4938824;28;20055;-88
2021/10/05 11:59:22;;;;;;;5.75;3.08;;;;;;;;;;4872970;29;20057;-88
2021/10/05 12:01:56;;;;;;;3.40;3.10;;;;;;;;;;4903721;29;20045;-88
2021/10/05 12:04:30;;;;;;;3.88;3.47;;;;;;;;;;4896145;29;20080;-88
2021/10/05 12:07:06;;;;;;;4.10;2.67;;;;;;;;;;4856235;29;20052;-88
2021/10/05 12:09:36;;;;;;;7.13;4.30;;;;;;;;;;4934627;29;20054;-89
2021/10/05 12:12:05;;;;;;;4.68;3.88;;;;;;;;;;4934861;29;20055;-89
2021/10/05 12:14:44;;;;;;;5.38;4.85;;;;;;;;;;4925075;28;20048;-89
2021/10/05 12:17:17;;;;;;;4.47;3.40;;;;;;;;;;4918759;29;20113;-89
2021/10/05 12:19:48;;;;;;;3.25;2.97;;;;;;;;;;4931640;29;20040;-88
2021/10/05 12:22:22;;;;;;;3.80;3.40;;;;;;;;;;4917791;29;20044;-89
2021/10/05 12:24:52;;;;;;;3.60;3.00;;;;;;;;;;4932718;28;20047;-90
2021/10/05 12:27:26;;;;;;;3.25;2.95;;;;;;;;;;4901018;29;20616;-87
2021/10/05 12:30:00;;;;;;;4.35;3.53;;;;;;;;;;4933126;28;20587;-90
2021/10/05 12:32:34;;;;;;;5.50;4.97;;;;;;;;;;4933417;29;20060;-89
2021/10/05 12:35:06;;;;;;;4.78;3.63;;;;;;;;;;4932983;29;20063;-89
2021/10/05 12:37:35;;;;;;;7.80;5.53;;;;;;;;;;4919729;29;20044;-89
2021/10/05 12:40:07;;;;;;;5.03;4.25;;;;;;;;;;4936013;29;20367;-89
2021/10/05 12:42:48;;;;;;;5.78;5.03;;;;;;;;;;4920940;29;20044;-89
2021/10/05 12:45:22;;;;;;;3.83;3.53;;;;;;;;;;4937982;29;20047;-90
2021/10/05 12:48:01;;;;;;;5.50;3.88;;;;;;;;;;4939413;29;20044;-89
2021/10/05 12:50:31;;;;;;;4.55;4.15;;;;;;;;;;4934386;28;20056;-87
2021/10/05 12:53:00;;;;;;;4.13;3.72;;;;;;;;;;4935200;29;20051;-86
2021/10/05 12:55:29;;;;;;;3.83;3.20;;;;;;;;;;4935287;29;20062;-76
2021/10/05 12:57:58;;;;;;;3.72;3.10;;;;;;;;;;4928635;29;20415;-86
2021/10/05 13:00:27;;;;;;;7.35;3.95;;;;;;;;;;4934442;29;20039;-85
2021/10/05 13:02:55;;;;;;;5.28;4.43;;;;;;;;;;4970985;28;20515;-87
2021/10/05 13:05:25;;;;;;;5.97;3.58;;;;;;;;;;4956947;28;20567;-89
2021/10/05 13:07:54;;;;;;;4.57;3.97;;;;;;;;;;4926416;28;20046;-88
2021/10/05 13:10:48;;;;;;;5.60;4.38;;;;;;;;;;4956243;28;20047;-88
2021/10/05 13:13:19;;;;;;;4.93;3.92;;;;;;;;;;4925040;28;20058;-90
2021/10/05 13:15:48;;;;;;;4.43;3.03;;;;;;;;;;4958762;28;20050;-92
2021/10/05 13:18:17;;;;;;;4.80;3.60;;;;;;;;;;4974255;28;20043;-91
2021/10/05 13:20:54;;;;;;;3.60;3.30;;;;;;;;;;4954813;28;20812;-90
2021/10/05 13:23:22;;;;;;;3.58;3.20;;;;;;;;;;4957500;28;20489;-89
2021/10/05 13:25:51;;;;;;;5.32;3.45;;;;;;;;;;4938298;28;20050;-88
2021/10/05 13:28:19;;;;;;;4.50;4.15;;;;;;;;;;4956624;28;20052;-86
2021/10/05 13:30:47;;;;;;;3.10;2.83;;;;;;;;;;4971653;28;20425;-86
2021/10/05 13:33:21;;;;;;;2.50;2.30;;;;;;;;;;4956073;28;20047;-89
2021/10/05 13:35:50;;;;;;;4.45;3.47;;;;;;;;;;4940651;28;20050;-84
2021/10/05 13:38:18;;;;;;;2.60;2.40;;;;;;;;;;4955510;28;20050;-88
2021/10/05 13:40:46;;;;;;;2.67;2.47;;;;;;;;;;4972693;28;20051;-85
2021/10/05 13:43:15;;;;;;;3.60;3.05;;;;;;;;;;4955023;28;20042;-86
2021/10/05 13:45:44;;;;;;;3.50;3.00;;;;;;;;;;4972354;28;20058;-88
2021/10/05 13:48:12;;;;;;;3.55;2.42;;;;;;;;;;4955658;28;20408;-82
2021/10/05 13:50:57;;;;;;;4.15;2.92;;;;;;;;;;4972621;28;20515;-85
2021/10/05 13:53:38;;;;;;;2.55;2.35;;;;;;;;;;4948511;28;20055;-84
2021/10/05 13:56:06;;;;;;;2.30;2.20;;;;;;;;;;4938997;28;20058;-85
2021/10/05 13:58:40;;;;;;;3.58;3.28;;;;;;;;;;4964275;28;20046;-83
2021/10/05 14:01:08;;;;;;;3.25;2.55;;;;;;;;;;4963404;28;20059;-85
2021/10/05 14:03:37;;;;;;;4.28;3.00;;;;;;;;;;4972915;28;20492;-85
2021/10/05 14:06:05;;;;;;;2.80;2.47;;;;;;;;;;4972265;28;20061;-83
2021/10/05 14:08:33;;;;;;;4.97;2.60;;;;;;;;;;4972788;28;20042;-82
2021/10/05 14:11:01;;;;;;;3.72;2.45;;;;;;;;;;4971268;28;20066;-83
2021/10/05 14:13:29;;;;;;;3.63;2.70;;;;;;;;;;4972019;28;20058;-82
2021/10/05 14:15:57;;;;;;;2.53;2.15;;;;;;;;;;4972286;28;20058;-81
2021/10/05 14:18:25;;;;;;;2.63;2.42;;;;;;;;;;4954579;28;20039;-82
2021/10/05 14:20:53;;;;;;;3.28;2.78;;;;;;;;;;4971750;28;20059;-83
2021/10/05 14:23:21;;;;;;;5.50;3.35;;;;;;;;;;4954093;28;20058;-83
2021/10/05 14:25:49;;;;;;;3.42;2.95;;;;;;;;;;4971538;28;20613;-85
2021/10/05 14:28:18;;;;;;;3.22;2.40;;;;;;;;;;4969867;28;20054;-80
2021/10/05 14:30:46;;;;;;;5.57;3.08;;;;;;;;;;4947988;28;20042;-83
2021/10/05 14:33:17;;;;;;;3.95;3.55;;;;;;;;;;4955657;28;20787;-84
2021/10/05 14:35:45;;;;;;;4.68;2.90;;;;;;;;;;4971146;28;20380;-83
2021/10/05 14:38:14;;;;;;;3.28;2.78;;;;;;;;;;4970005;28;20061;-84
2021/10/05 14:40:42;;;;;;;3.15;2.85;;;;;;;;;;4953480;28;20514;-83
2021/10/05 14:43:10;;;;;;;3.92;2.88;;;;;;;;;;4967256;28;20047;-84
2021/10/05 14:45:38;;;;;;;4.13;2.67;;;;;;;;;;4971503;28;20519;-83
2021/10/05 14:48:07;;;;;;;3.70;3.00;;;;;;;;;;4953830;28;20500;-84
2021/10/05 14:50:36;;;;;;;3.55;3.25;;;;;;;;;;4981944;28;20740;-82
2021/10/05 14:53:08;;;;;;;5.32;4.05;;;;;;;;;;4966360;28;20054;-84
2021/10/05 14:55:36;;;;;;;3.67;3.38;;;;;;;;;;4970514;28;20050;-84
2021/10/05 14:58:05;;;;;;;3.50;3.20;;;;;;;;;;4970502;28;20512;-84
2021/10/05 15:00:33;;;;;;;6.03;3.17;;;;;;;;;;4971515;28;20392;-84
2021/10/05 15:03:01;;;;;;;6.85;4.07;;;;;;;;;;4969900;28;20059;-84
2021/10/05 15:05:29;;;;;;;4.53;2.90;;;;;;;;;;4970545;28;20047;-86